Time;durP1;ratioP1;P1;durP2;ratioP2;P2;SDS_P1;SDS_P2;PMS_P1;PMS_P2;Temp;Humidity;BMP_temperature;BMP_pressure;BME280_temperature;BME280_humidity;BME280_pressure;Samples;Min_cycle;Max_cycle;Signal;HPM_P1;HPM_P2
2022/12/04 00:01:58;;;;;;;24.00;16.70;;;2.90;99.90;;;;;;5071268;28;20479;-49
2022/12/04 00:04:25;;;;;;;21.07;17.60;;;2.30;99.90;;;;;;5070292;28;20482;-48
2022/12/04 00:06:54;;;;;;;24.73;17.60;;;2.70;99.90;;;;;;5069195;28;20447;-47
2022/12/04 00:09:22;;;;;;;24.80;17.00;;;2.70;99.90;;;;;;5071088;28;20803;-48
2022/12/04 00:11:49;;;;;;;22.23;17.70;;;2.80;99.90;;;;;;5070541;28;20934;-47
2022/12/04 00:14:17;;;;;;;18.73;16.43;;;3.00;99.90;;;;;;5065321;28;20555;-48
2022/12/04 00:16:44;;;;;;;23.73;18.80;;;3.10;99.90;;;;;;5071813;28;20447;-47
2022/12/04 00:19:11;;;;;;;23.97;18.00;;;3.20;99.90;;;;;;5071621;28;20567;-47
2022/12/04 00:21:37;;;;;;;24.13;17.60;;;3.30;99.90;;;;;;5071114;28;20551;-48
2022/12/04 00:24:05;;;;;;;20.60;16.10;;;3.20;99.90;;;;;;5070951;28;20464;-48
2022/12/04 00:26:32;;;;;;;17.73;16.00;;;3.20;99.90;;;;;;5069697;28;20453;-47
2022/12/04 00:28:59;;;;;;;20.57;16.50;;;3.30;99.90;;;;;;5069368;28;20937;-47
2022/12/04 00:31:29;;;;;;;21.07;16.50;;;3.20;99.90;;;;;;5071576;28;20472;-49
2022/12/04 00:33:57;;;;;;;24.00;16.40;;;3.00;99.90;;;;;;5071251;28;20552;-47
2022/12/04 00:36:26;;;;;;;19.00;17.00;;;2.60;99.90;;;;;;5069259;28;20446;-47
2022/12/04 00:38:53;;;;;;;26.60;17.00;;;2.70;99.90;;;;;;5070782;28;20985;-48
2022/12/04 00:41:22;;;;;;;19.30;16.50;;;2.70;99.90;;;;;;5071240;28;20440;-48
2022/12/04 00:43:49;;;;;;;22.20;16.73;;;2.60;99.90;;;;;;5070979;28;20868;-48
2022/12/04 00:46:17;;;;;;;22.33;17.13;;;2.80;99.90;;;;;;5069578;28;20540;-48
2022/12/04 00:48:45;;;;;;;21.57;18.07;;;3.00;99.90;;;;;;5069679;28;20437;-47
2022/12/04 00:51:14;;;;;;;25.33;18.67;;;3.10;99.90;;;;;;5069546;28;21022;-47
2022/12/04 00:53:41;;;;;;;23.70;16.73;;;3.20;99.90;;;;;;5069149;28;20466;-47
2022/12/04 00:56:11;;;;;;;20.53;17.33;;;3.20;99.90;;;;;;5069584;28;20531;-47
2022/12/04 00:58:38;;;;;;;22.83;16.40;;;3.00;99.90;;;;;;5069192;28;20985;-50
2022/12/04 01:01:07;;;;;;;19.87;17.70;;;2.90;99.90;;;;;;5071286;28;20441;-47
2022/12/04 01:03:34;;;;;;;20.77;16.37;;;3.00;99.90;;;;;;5069363;28;20544;-48
2022/12/04 01:06:03;;;;;;;22.20;18.10;;;3.00;99.90;;;;;;5068034;28;20540;-49
2022/12/04 01:08:30;;;;;;;21.53;16.27;;;2.70;99.90;;;;;;5069291;28;20528;-48
2022/12/04 01:10:57;;;;;;;23.20;16.17;;;2.50;99.90;;;;;;5069613;28;20548;-48
2022/12/04 01:13:25;;;;;;;22.60;16.90;;;2.70;99.90;;;;;;5069461;28;20456;-47
2022/12/04 01:15:51;;;;;;;22.23;17.93;;;2.70;99.90;;;;;;5073314;28;20436;-47
2022/12/04 01:18:18;;;;;;;21.23;16.67;;;2.70;99.90;;;;;;5073980;28;20476;-47
2022/12/04 01:20:48;;;;;;;19.03;15.53;;;2.60;99.90;;;;;;5075114;28;20553;-47
2022/12/04 01:23:18;;;;;;;19.47;14.50;;;2.50;99.90;;;;;;5074109;28;20465;-47
2022/12/04 01:25:51;;;;;;;24.93;17.30;;;2.60;99.90;;;;;;5074684;28;20449;-48
2022/12/04 01:28:18;;;;;;;26.17;17.97;;;2.80;99.90;;;;;;5074679;28;20436;-48
2022/12/04 01:30:45;;;;;;;22.60;17.27;;;2.70;99.90;;;;;;5074384;28;20451;-46
2022/12/04 01:33:12;;;;;;;22.57;17.10;;;2.40;99.90;;;;;;5073949;28;20474;-47
2022/12/04 01:35:38;;;;;;;22.47;17.47;;;2.40;99.90;;;;;;5074523;28;20436;-47
2022/12/04 01:38:05;;;;;;;24.80;17.40;;;2.60;99.90;;;;;;5074140;28;21021;-47
2022/12/04 01:40:34;;;;;;;21.40;17.37;;;2.80;99.90;;;;;;5074290;28;20441;-46
2022/12/04 01:43:00;;;;;;;27.50;17.90;;;2.90;99.90;;;;;;5073389;28;20993;-49
2022/12/04 01:45:49;;;;;;;22.83;18.20;;;3.00;99.90;;;;;;5074217;28;20445;-49
2022/12/04 01:48:21;;;;;;;17.77;15.87;;;3.00;99.90;;;;;;5070004;28;20455;-47
2022/12/04 01:50:51;;;;;;;23.43;16.50;;;3.00;99.90;;;;;;5073524;28;20437;-47
2022/12/04 01:53:19;;;;;;;26.10;19.17;;;2.90;99.90;;;;;;5073397;28;20479;-47
2022/12/04 01:55:48;;;;;;;23.00;16.50;;;3.00;99.90;;;;;;5074119;28;20443;-47
2022/12/04 01:58:16;;;;;;;21.93;16.43;;;3.10;99.90;;;;;;5073956;28;20473;-47
2022/12/04 02:00:44;;;;;;;19.10;16.33;;;3.10;99.90;;;;;;5073673;28;20537;-46
2022/12/04 02:03:12;;;;;;;18.77;15.47;;;3.20;99.90;;;;;;5073619;28;20467;-47
2022/12/04 02:05:39;;;;;;;19.20;14.87;;;3.20;99.90;;;;;;5074381;28;20451;-47
2022/12/04 02:08:06;;;;;;;22.27;16.57;;;3.10;99.90;;;;;;5074111;28;20809;-48
2022/12/04 02:10:44;;;;;;;16.70;14.90;;;3.10;99.90;;;;;;5073432;28;20445;-47
2022/12/04 02:13:20;;;;;;;19.60;15.43;;;2.70;99.90;;;;;;5073671;28;20539;-47
2022/12/04 02:15:53;;;;;;;19.20;15.90;;;2.60;99.90;;;;;;5073644;28;20876;-47
2022/12/04 02:18:31;;;;;;;18.27;14.20;;;2.70;99.90;;;;;;5073580;28;20835;-47
2022/12/04 02:21:03;;;;;;;18.03;16.10;;;2.50;99.90;;;;;;5073385;28;20563;-47
2022/12/04 02:24:00;;;;;;;18.03;14.60;;;2.70;99.90;;;;;;5072923;28;20471;-46
2022/12/04 02:26:38;;;;;;;19.50;15.30;;;2.80;99.90;;;;;;5072364;28;20811;-47
2022/12/04 02:29:12;;;;;;;19.63;16.20;;;2.90;99.90;;;;;;5073885;28;20548;-50
2022/12/04 02:31:43;;;;;;;16.27;13.80;;;2.80;99.90;;;;;;5073114;28;20451;-47
2022/12/04 02:34:16;;;;;;;17.10;13.70;;;2.60;99.90;;;;;;5073987;28;20560;-47
2022/12/04 02:36:48;;;;;;;15.00;13.13;;;2.70;99.90;;;;;;5073296;28;20531;-47
2022/12/04 02:39:20;;;;;;;17.13;14.40;;;2.50;99.90;;;;;;5073161;28;20499;-46
2022/12/04 02:41:51;;;;;;;15.33;13.70;;;2.20;99.90;;;;;;5073422;28;20524;-47
2022/12/04 02:44:23;;;;;;;13.50;11.97;;;2.40;99.90;;;;;;5072800;28;20471;-50
2022/12/04 02:46:55;;;;;;;14.00;11.00;;;2.50;99.90;;;;;;5073206;28;20467;-47
2022/12/04 02:49:29;;;;;;;14.20;12.30;;;2.60;99.90;;;;;;5073277;28;20443;-47
2022/12/04 02:52:00;;;;;;;17.27;14.30;;;2.70;99.90;;;;;;5073041;28;20731;-46
2022/12/04 02:54:32;;;;;;;15.67;12.70;;;2.50;99.90;;;;;;5072978;28;20461;-47
2022/12/04 02:57:01;;;;;;;18.77;13.90;;;2.60;99.90;;;;;;5072823;28;20451;-46
2022/12/04 02:59:35;;;;;;;17.87;12.97;;;2.60;99.90;;;;;;5073029;28;20482;-47
2022/12/04 03:02:08;;;;;;;16.33;12.00;;;2.70;99.90;;;;;;5072998;28;20530;-49
2022/12/04 03:04:39;;;;;;;18.40;12.17;;;2.80;99.90;;;;;;5072488;28;20452;-49
2022/12/04 03:07:11;;;;;;;14.70;11.93;;;2.50;99.90;;;;;;5072790;28;20448;-48
2022/12/04 03:09:43;;;;;;;12.93;11.50;;;2.70;99.90;;;;;;5072523;28;20437;-46
2022/12/04 03:12:15;;;;;;;13.50;10.50;;;2.80;99.90;;;;;;5072515;28;20536;-47
2022/12/04 03:14:49;;;;;;;13.90;10.70;;;2.80;99.90;;;;;;5072109;28;20445;-47
2022/12/04 03:17:22;;;;;;;12.77;10.03;;;2.60;99.90;;;;;;5072506;28;20448;-47
2022/12/04 03:19:54;;;;;;;18.70;15.40;;;2.60;99.90;;;;;;5072089;28;20848;-47
2022/12/04 03:22:23;;;;;;;15.40;13.73;;;2.60;99.90;;;;;;5072178;28;20444;-47
2022/12/04 03:24:52;;;;;;;13.23;11.90;;;2.50;99.90;;;;;;5072325;28;20622;-47
2022/12/04 03:27:25;;;;;;;13.03;10.20;;;2.40;99.90;;;;;;5072104;28;20528;-48
2022/12/04 03:29:59;;;;;;;11.57;9.33;;;2.60;99.90;;;;;;5072508;28;20432;-47
2022/12/04 03:32:33;;;;;;;11.83;9.20;;;2.70;99.90;;;;;;5072045;28;20499;-47
2022/12/04 03:35:05;;;;;;;9.13;8.20;;;2.70;99.90;;;;;;5072230;28;20440;-47
2022/12/04 03:37:39;;;;;;;13.00;10.07;;;2.80;99.90;;;;;;5071368;28;20445;-47
2022/12/04 03:40:11;;;;;;;16.87;14.00;;;2.70;99.90;;;;;;5072338;28;20479;-47
2022/12/04 03:42:42;;;;;;;17.37;12.93;;;2.40;99.90;;;;;;5072183;28;20456;-47
2022/12/04 03:45:19;;;;;;;15.20;12.13;;;2.00;99.90;;;;;;5071690;28;20889;-47
2022/12/04 03:47:54;;;;;;;15.47;11.57;;;2.10;99.90;;;;;;5071765;28;20451;-50
2022/12/04 03:50:28;;;;;;;15.20;12.67;;;2.20;99.90;;;;;;5072444;28;20531;-49
2022/12/04 03:53:01;;;;;;;8.03;6.80;;;2.40;99.90;;;;;;5071864;28;20583;-47
2022/12/04 03:55:35;;;;;;;15.10;12.00;;;2.30;99.90;;;;;;5071493;28;21062;-48
2022/12/04 03:58:06;;;;;;;17.57;12.90;;;2.20;99.90;;;;;;5071481;28;20448;-47
2022/12/04 04:00:40;;;;;;;17.87;15.27;;;2.30;99.90;;;;;;5071872;28;20525;-47
2022/12/04 04:03:10;;;;;;;20.63;15.10;;;2.40;99.90;;;;;;5071656;28;20468;-47
2022/12/04 04:05:41;;;;;;;20.67;13.63;;;2.20;99.90;;;;;;5071257;28;20799;-49
2022/12/04 04:08:32;;;;;;;17.87;14.33;;;2.00;99.90;;;;;;5071136;28;20445;-47
2022/12/04 04:11:09;;;;;;;15.17;13.20;;;2.20;99.90;;;;;;5072009;28;20455;-47
2022/12/04 04:24:53;;;;;;;14.90;10.90;;;2.60;99.90;;;;;;5071000;28;20499;-49
2022/12/04 04:27:20;;;;;;;12.77;10.90;;;2.60;99.90;;;;;;5071215;28;20455;-47
2022/12/04 04:29:47;;;;;;;15.73;11.77;;;2.70;99.90;;;;;;5071687;28;20443;-47
2022/12/04 04:32:23;;;;;;;19.20;12.93;;;2.70;99.90;;;;;;5071739;28;20436;-47
2022/12/04 04:34:56;;;;;;;15.43;13.67;;;2.60;99.90;;;;;;5070778;28;20558;-47
2022/12/04 04:37:32;;;;;;;20.13;12.80;;;2.40;99.90;;;;;;5071448;28;20527;-47
2022/12/04 04:40:08;;;;;;;11.07;9.83;;;2.40;99.90;;;;;;5071297;28;20929;-47
2022/12/04 04:42:42;;;;;;;13.10;11.03;;;2.40;99.90;;;;;;5070616;28;20547;-47
2022/12/04 04:45:16;;;;;;;15.57;13.83;;;2.30;99.90;;;;;;5071047;28;20535;-47
2022/12/04 04:47:48;;;;;;;16.00;12.57;;;2.40;99.90;;;;;;5071269;28;20531;-47
2022/12/04 04:50:17;;;;;;;12.87;9.30;;;2.50;99.90;;;;;;5077565;28;20527;-47
2022/12/04 04:52:48;;;;;;;11.23;9.20;;;2.40;99.90;;;;;;5077619;28;20487;-49
2022/12/04 04:55:16;;;;;;;15.13;13.53;;;2.30;99.90;;;;;;5077023;28;20547;-48
2022/12/04 04:57:43;;;;;;;16.47;14.80;;;2.30;99.90;;;;;;5077236;28;20535;-47
2022/12/04 05:00:13;;;;;;;17.03;13.93;;;2.10;99.90;;;;;;5077258;28;20473;-48
2022/12/04 05:02:40;;;;;;;17.33;14.60;;;2.10;99.90;;;;;;5077773;28;20468;-47
2022/12/04 05:05:09;;;;;;;19.60;15.47;;;2.10;99.90;;;;;;5077546;28;20450;-49
2022/12/04 05:07:36;;;;;;;25.00;17.40;;;2.20;99.90;;;;;;5077324;28;20988;-46
2022/12/04 05:10:03;;;;;;;23.23;16.80;;;1.70;99.90;;;;;;5077673;28;20440;-47
2022/12/04 05:12:30;;;;;;;19.50;15.60;;;1.50;99.90;;;;;;5077549;28;20464;-47
2022/12/04 05:14:57;;;;;;;25.53;16.53;;;1.60;99.90;;;;;;5076653;28;20972;-47
2022/12/04 05:17:24;;;;;;;16.23;12.83;;;1.80;99.90;;;;;;5077262;28;20540;-47
2022/12/04 05:19:53;;;;;;;13.50;12.03;;;1.80;99.90;;;;;;5077395;28;20476;-47
2022/12/04 05:22:24;;;;;;;19.90;15.00;;;2.00;99.90;;;;;;5077452;28;20440;-47
2022/12/04 05:24:51;;;;;;;21.93;16.37;;;2.10;99.90;;;;;;5077127;28;20452;-47
2022/12/04 05:27:17;;;;;;;22.60;16.77;;;2.10;99.90;;;;;;5077672;28;20483;-47
2022/12/04 05:29:44;;;;;;;20.00;16.33;;;1.60;99.90;;;;;;5077084;28;20812;-50
2022/12/04 05:32:11;;;;;;;21.20;17.47;;;1.50;99.90;;;;;;5077523;28;20535;-47
2022/12/04 05:34:38;;;;;;;18.23;14.47;;;1.60;99.90;;;;;;5077089;28;20531;-47
2022/12/04 05:37:05;;;;;;;20.93;15.90;;;1.90;99.90;;;;;;5077131;28;21050;-47
2022/12/04 05:39:35;;;;;;;21.70;15.70;;;2.00;99.90;;;;;;5077067;28;20478;-47
2022/12/04 05:42:02;;;;;;;20.10;16.20;;;2.00;99.90;;;;;;5077057;28;20436;-47
2022/12/04 05:44:28;;;;;;;23.37;17.07;;;2.00;99.90;;;;;;5077368;28;20916;-47
2022/12/04 05:46:55;;;;;;;21.20;16.50;;;2.00;99.90;;;;;;5076574;28;20433;-47
2022/12/04 05:49:22;;;;;;;21.97;15.83;;;2.30;99.90;;;;;;5077386;28;20447;-47
2022/12/04 05:51:50;;;;;;;21.30;17.47;;;2.30;99.90;;;;;;5077352;28;20565;-47
2022/12/04 05:54:16;;;;;;;20.20;16.43;;;2.30;99.90;;;;;;5076716;28;20991;-47
2022/12/04 05:56:45;;;;;;;20.70;15.53;;;2.30;99.90;;;;;;5077054;28;20532;-47
2022/12/04 05:59:12;;;;;;;16.80;12.80;;;2.40;99.90;;;;;;5077320;28;20467;-47
2022/12/04 06:01:38;;;;;;;18.93;15.37;;;2.50;99.90;;;;;;5074070;28;20544;-50
2022/12/04 06:04:05;;;;;;;18.77;14.93;;;2.40;99.90;;;;;;5072868;28;20911;-47
2022/12/04 06:06:32;;;;;;;24.20;16.83;;;2.10;99.90;;;;;;5073696;28;20480;-47
2022/12/04 06:09:00;;;;;;;20.93;15.87;;;2.20;99.90;;;;;;5074065;28;20524;-49
2022/12/04 06:11:29;;;;;;;24.43;18.23;;;1.80;99.90;;;;;;5074142;28;21097;-47
2022/12/04 06:13:58;;;;;;;24.70;16.63;;;1.70;99.90;;;;;;5072670;28;20467;-47
2022/12/04 06:16:27;;;;;;;22.33;17.77;;;1.80;99.90;;;;;;5073632;28;20899;-47
2022/12/04 06:18:56;;;;;;;22.47;17.57;;;1.90;99.90;;;;;;5073521;28;20473;-47
2022/12/04 06:21:26;;;;;;;19.10;16.37;;;2.00;99.90;;;;;;5073901;28;20535;-47
2022/12/04 06:23:53;;;;;;;17.93;15.67;;;2.10;99.90;;;;;;5072882;28;20461;-48
2022/12/04 06:26:20;;;;;;;13.50;11.77;;;2.30;99.90;;;;;;5073743;28;20528;-49
2022/12/04 06:28:47;;;;;;;16.50;12.57;;;2.30;99.90;;;;;;5073973;28;20487;-48
2022/12/04 06:31:17;;;;;;;19.60;14.67;;;2.40;99.90;;;;;;5073481;28;21053;-47
2022/12/04 06:33:45;;;;;;;23.53;17.60;;;2.30;99.90;;;;;;5073057;28;20484;-47
2022/12/04 06:36:15;;;;;;;17.10;15.27;;;2.20;99.90;;;;;;5073602;28;20532;-47
2022/12/04 06:38:42;;;;;;;21.57;17.03;;;2.00;99.90;;;;;;5072878;28;20540;-47
2022/12/04 06:41:11;;;;;;;26.53;21.00;;;2.10;99.90;;;;;;5073441;28;20540;-49
2022/12/04 06:43:38;;;;;;;28.97;24.80;;;2.10;99.90;;;;;;5072204;28;20552;-46
2022/12/04 06:46:07;;;;;;;17.70;15.97;;;2.10;99.90;;;;;;5073297;28;20445;-49
2022/12/04 06:48:35;;;;;;;19.07;14.97;;;2.00;99.90;;;;;;5073090;28;20521;-49
2022/12/04 06:51:04;;;;;;;51.50;40.20;;;2.00;99.90;;;;;;5073068;28;20441;-47
2022/12/04 06:53:32;;;;;;;17.10;15.27;;;2.20;99.90;;;;;;5072371;28;21072;-47
2022/12/04 06:56:00;;;;;;;13.43;11.87;;;2.30;99.90;;;;;;5073607;28;20536;-47
2022/12/04 06:58:28;;;;;;;13.13;11.93;;;2.50;99.90;;;;;;5072967;28;20441;-47
2022/12/04 07:00:55;;;;;;;22.93;19.20;;;2.40;99.90;;;;;;5073256;28;20572;-47
2022/12/04 07:03:23;;;;;;;25.23;19.17;;;2.20;99.90;;;;;;5072349;28;20460;-47
2022/12/04 07:05:52;;;;;;;21.93;18.00;;;1.80;99.90;;;;;;5072822;28;20441;-47
2022/12/04 07:08:19;;;;;;;25.17;17.83;;;1.40;99.90;;;;;;5072727;28;20524;-50
2022/12/04 07:10:45;;;;;;;28.07;19.90;;;1.40;99.90;;;;;;5073014;28;20810;-47
2022/12/04 07:13:12;;;;;;;27.57;18.77;;;1.50;99.90;;;;;;5071944;28;20461;-46
2022/12/04 07:15:39;;;;;;;26.70;19.50;;;1.80;99.90;;;;;;5072465;28;20475;-49
2022/12/04 07:18:06;;;;;;;23.63;17.83;;;1.90;99.90;;;;;;5072123;28;21028;-47
2022/12/04 07:20:33;;;;;;;23.27;18.77;;;2.10;99.90;;;;;;5072744;28;20476;-47
2022/12/04 07:23:01;;;;;;;23.50;17.20;;;2.30;99.90;;;;;;5071867;28;20540;-48
2022/12/04 07:25:30;;;;;;;22.30;16.20;;;2.30;99.90;;;;;;5072138;28;20520;-47
2022/12/04 07:27:56;;;;;;;19.70;16.77;;;2.40;99.90;;;;;;5072305;28;20578;-48
2022/12/04 07:30:23;;;;;;;22.97;18.60;;;2.50;99.90;;;;;;5072637;28;20437;-47
2022/12/04 07:32:50;;;;;;;26.13;18.60;;;2.50;99.90;;;;;;5071712;28;20468;-50
2022/12/04 07:35:17;;;;;;;21.43;18.20;;;2.40;99.90;;;;;;5072104;28;20536;-47
2022/12/04 07:37:44;;;;;;;19.00;16.43;;;2.40;99.90;;;;;;5070483;28;20884;-48
2022/12/04 07:40:13;;;;;;;18.77;14.77;;;2.50;99.90;;;;;;5072511;28;20477;-50
2022/12/04 07:42:40;;;;;;;20.40;15.70;;;2.60;99.90;;;;;;5071162;28;20551;-47
2022/12/04 07:45:08;;;;;;;22.77;17.30;;;2.70;99.90;;;;;;5071723;28;20446;-50
2022/12/04 07:47:36;;;;;;;17.07;13.37;;;2.60;99.90;;;;;;5071288;28;20455;-48
2022/12/04 07:50:03;;;;;;;17.93;14.23;;;2.60;99.90;;;;;;5071976;28;20437;-47
2022/12/04 07:52:30;;;;;;;22.77;17.80;;;2.50;99.90;;;;;;5071722;28;20467;-47
2022/12/04 07:54:57;;;;;;;22.20;18.23;;;2.70;99.90;;;;;;5069862;28;20945;-47
2022/12/04 07:57:25;;;;;;;26.40;18.97;;;2.80;99.90;;;;;;5065717;28;20807;-48
2022/12/04 07:59:52;;;;;;;30.77;22.43;;;2.50;99.90;;;;;;5070259;28;20475;-48
2022/12/04 08:02:19;;;;;;;25.00;19.67;;;2.40;99.90;;;;;;5051725;28;20442;-47
2022/12/04 08:04:46;;;;;;;22.33;17.53;;;2.30;99.90;;;;;;5071111;28;20914;-47
2022/12/04 08:07:13;;;;;;;26.10;20.80;;;2.30;99.90;;;;;;5071948;28;20540;-47
2022/12/04 08:09:40;;;;;;;33.77;21.93;;;2.30;99.90;;;;;;5071551;28;20536;-47
2022/12/04 08:12:07;;;;;;;29.13;23.30;;;2.60;99.90;;;;;;5071666;28;20573;-50
2022/12/04 08:14:35;;;;;;;26.23;21.43;;;2.70;99.90;;;;;;5071102;28;20525;-47
2022/12/04 08:17:02;;;;;;;31.13;21.20;;;2.80;99.90;;;;;;5071137;28;20455;-47
2022/12/04 08:19:29;;;;;;;33.10;21.33;;;2.90;99.90;;;;;;5071602;28;20567;-51
2022/12/04 08:21:56;;;;;;;26.07;21.67;;;2.80;99.90;;;;;;5071713;28;20450;-47
2022/12/04 08:24:23;;;;;;;25.50;20.33;;;2.70;99.90;;;;;;5070555;28;20468;-47
2022/12/04 08:26:49;;;;;;;30.83;22.07;;;2.80;99.90;;;;;;5071643;28;20445;-50
2022/12/04 08:29:16;;;;;;;27.80;22.80;;;2.60;99.90;;;;;;5071490;28;20451;-47
2022/12/04 08:31:44;;;;;;;24.13;20.27;;;2.50;99.90;;;;;;5071223;28;20436;-47
2022/12/04 08:34:11;;;;;;;23.60;19.17;;;2.50;99.90;;;;;;5071914;28;20925;-46
2022/12/04 08:36:38;;;;;;;22.97;19.40;;;2.70;99.90;;;;;;5071331;28;20436;-50
2022/12/04 08:39:05;;;;;;;29.47;24.17;;;2.80;99.90;;;;;;5071123;28;20445;-47
2022/12/04 08:41:32;;;;;;;26.63;20.40;;;3.00;99.90;;;;;;5070758;28;20473;-48
2022/12/04 08:43:59;;;;;;;25.07;22.53;;;3.00;99.90;;;;;;5070882;28;20903;-48
2022/12/04 08:46:27;;;;;;;25.50;15.90;;;3.00;99.90;;;;;;5071396;28;20480;-47
2022/12/04 08:48:56;;;;;;;17.87;15.20;;;3.10;99.90;;;;;;5071372;28;20524;-47
2022/12/04 08:51:25;;;;;;;18.50;14.93;;;3.20;99.90;;;;;;5070912;28;20449;-50
2022/12/04 08:53:55;;;;;;;22.73;16.33;;;3.30;99.90;;;;;;5070742;28;20472;-47
2022/12/04 08:56:22;;;;;;;23.90;19.70;;;3.40;99.90;;;;;;5071444;28;20448;-48
2022/12/04 08:58:49;;;;;;;23.67;18.50;;;3.40;99.90;;;;;;5070583;28;20450;-48
2022/12/04 09:01:16;;;;;;;23.80;19.73;;;3.40;99.90;;;;;;5070869;28;21082;-48
2022/12/04 09:03:43;;;;;;;25.53;21.40;;;3.30;99.90;;;;;;5070150;28;20465;-47
2022/12/04 09:06:13;;;;;;;24.10;20.60;;;3.20;99.90;;;;;;5068949;28;20494;-46
2022/12/04 09:08:40;;;;;;;27.17;19.70;;;3.30;99.90;;;;;;5067395;28;20524;-49
2022/12/04 09:11:12;;;;;;;27.07;22.10;;;3.30;99.90;;;;;;5069121;28;20438;-49
2022/12/04 09:13:40;;;;;;;26.83;22.30;;;3.40;99.90;;;;;;5060501;28;20457;-49
2022/12/04 09:16:08;;;;;;;36.37;25.07;;;3.50;99.90;;;;;;5058364;28;20483;-50
2022/12/04 09:18:37;;;;;;;31.43;22.87;;;3.60;99.90;;;;;;5060487;28;20954;-47
2022/12/04 09:21:06;;;;;;;23.70;19.73;;;3.60;99.90;;;;;;5055629;28;20545;-47
2022/12/04 09:23:35;;;;;;;20.60;15.43;;;3.30;99.90;;;;;;5064650;28;21013;-47
2022/12/04 09:26:03;;;;;;;23.50;17.70;;;3.10;99.90;;;;;;5067758;28;20465;-47
2022/12/04 09:28:30;;;;;;;20.10;16.60;;;3.10;99.90;;;;;;5060166;28;20839;-47
2022/12/04 09:30:58;;;;;;;22.37;17.63;;;3.30;99.90;;;;;;5065541;28;20485;-47
2022/12/04 09:33:25;;;;;;;19.37;15.60;;;3.40;99.90;;;;;;5063340;28;20461;-47
2022/12/04 09:35:52;;;;;;;21.17;16.60;;;3.50;99.90;;;;;;5056513;28;20881;-49
2022/12/04 09:38:19;;;;;;;20.10;17.40;;;3.30;99.90;;;;;;5068810;28;20430;-47
2022/12/04 09:40:54;;;;;;;25.00;18.77;;;3.20;99.90;;;;;;5059438;28;20994;-47
2022/12/04 09:43:29;;;;;;;22.27;16.93;;;3.10;99.90;;;;;;5063138;28;20702;-48
2022/12/04 09:46:01;;;;;;;22.63;18.07;;;3.20;99.90;;;;;;5065772;28;20528;-47
2022/12/04 09:48:33;;;;;;;19.97;16.97;;;3.40;99.90;;;;;;5064251;28;20528;-48
2022/12/04 09:51:01;;;;;;;19.07;16.77;;;3.50;99.90;;;;;;5063227;28;20429;-47
2022/12/04 09:53:37;;;;;;;19.43;17.30;;;3.60;99.90;;;;;;5067386;28;20544;-49
2022/12/04 09:56:11;;;;;;;21.50;16.97;;;3.70;99.90;;;;;;5057345;28;20445;-48
2022/12/04 09:58:42;;;;;;;21.07;17.63;;;3.80;99.90;;;;;;5070127;28;20543;-47
2022/12/04 10:01:20;;;;;;;19.30;16.83;;;3.80;99.90;;;;;;5071352;28;20549;-46
2022/12/04 10:03:47;;;;;;;24.83;19.67;;;3.70;99.90;;;;;;5062474;28;20559;-46
2022/12/04 10:06:19;;;;;;;25.50;20.03;;;3.60;99.90;;;;;;5061564;28;20449;-47
2022/12/04 10:08:51;;;;;;;26.30;19.67;;;3.70;99.90;;;;;;5060337;28;20466;-47
2022/12/04 10:11:26;;;;;;;22.33;19.93;;;3.80;99.90;;;;;;5062258;28;20444;-47
2022/12/04 10:14:08;;;;;;;21.50;19.20;;;3.90;99.90;;;;;;5069895;28;20540;-48
2022/12/04 10:16:48;;;;;;;25.97;20.43;;;3.80;99.90;;;;;;5056317;28;20891;-46
2022/12/04 10:19:24;;;;;;;21.17;18.83;;;4.00;99.90;;;;;;5071829;28;21115;-48
2022/12/04 10:22:03;;;;;;;19.90;17.87;;;4.00;99.90;;;;;;5063097;28;21033;-48
2022/12/04 10:24:39;;;;;;;22.00;18.77;;;4.10;99.90;;;;;;5060545;28;20524;-48
2022/12/04 10:27:14;;;;;;;23.20;19.60;;;4.20;99.90;;;;;;5062248;28;20800;-45
2022/12/04 10:29:46;;;;;;;19.83;17.40;;;4.10;99.90;;;;;;5067368;28;20453;-47
2022/12/04 10:32:18;;;;;;;21.67;18.00;;;4.20;99.90;;;;;;5059721;28;20433;-47
2022/12/04 10:34:48;;;;;;;19.30;17.20;;;4.20;99.90;;;;;;5069752;28;20529;-47
2022/12/04 10:37:15;;;;;;;21.40;18.93;;;4.20;99.90;;;;;;5060180;28;20439;-46
2022/12/04 10:39:49;;;;;;;22.83;18.07;;;4.30;99.90;;;;;;5062790;28;20440;-48
2022/12/04 10:42:25;;;;;;;22.00;19.60;;;4.30;99.90;;;;;;5058923;28;20453;-47
2022/12/04 10:44:53;;;;;;;18.00;16.10;;;4.30;99.90;;;;;;5068417;28;20449;-46
2022/12/04 10:47:22;;;;;;;18.33;16.10;;;5.10;99.90;;;;;;5062148;28;20552;-46
2022/12/04 10:49:55;;;;;;;16.00;14.33;;;5.10;99.90;;;;;;5070068;28;20439;-47
2022/12/04 10:52:22;;;;;;;16.40;14.70;;;4.80;99.90;;;;;;5067857;28;20433;-47
2022/12/04 10:54:53;;;;;;;15.87;14.10;;;4.70;99.90;;;;;;5065131;28;20437;-50
2022/12/04 10:57:21;;;;;;;17.33;15.50;;;4.60;99.90;;;;;;5068466;28;20526;-47
2022/12/04 10:59:51;;;;;;;15.97;14.03;;;4.50;99.90;;;;;;5062632;28;20567;-48
2022/12/04 11:02:21;;;;;;;19.83;15.80;;;4.40;99.90;;;;;;5062840;28;20856;-47
2022/12/04 11:04:54;;;;;;;18.13;16.20;;;4.40;99.90;;;;;;5058427;28;20938;-47
2022/12/04 11:07:23;;;;;;;20.37;17.20;;;4.40;99.90;;;;;;5057332;28;20529;-46
2022/12/04 11:09:56;;;;;;;19.60;15.50;;;4.30;99.90;;;;;;5060155;28;20498;-47
2022/12/04 11:12:24;;;;;;;15.90;13.53;;;4.50;99.90;;;;;;5064344;28;20441;-47
2022/12/04 11:15:00;;;;;;;18.17;14.20;;;4.50;99.90;;;;;;5065326;28;20444;-47
2022/12/04 11:17:27;;;;;;;15.03;12.07;;;4.50;99.90;;;;;;5067040;28;20447;-47
2022/12/04 11:20:00;;;;;;;10.43;8.50;;;4.70;99.90;;;;;;5059134;28;20456;-47
2022/12/04 11:22:26;;;;;;;9.70;8.70;;;4.70;99.90;;;;;;5058179;28;20538;-46
2022/12/04 11:24:57;;;;;;;9.90;8.93;;;4.60;99.90;;;;;;5050760;28;20440;-47
2022/12/04 11:27:30;;;;;;;11.77;10.60;;;4.50;99.90;;;;;;5067038;28;21033;-48
2022/12/04 11:29:58;;;;;;;14.67;11.60;;;4.60;99.90;;;;;;5065795;28;20784;-48
2022/12/04 11:32:28;;;;;;;15.47;11.90;;;4.70;99.90;;;;;;5069482;28;20551;-47
2022/12/04 11:34:59;;;;;;;11.60;9.77;;;4.80;99.90;;;;;;5056211;28;20629;-47
2022/12/04 11:37:30;;;;;;;12.40;10.70;;;4.80;99.90;;;;;;5068181;28;20820;-47
2022/12/04 11:39:57;;;;;;;12.30;10.97;;;4.80;99.90;;;;;;5066268;28;20445;-47
2022/12/04 11:42:27;;;;;;;12.20;11.00;;;4.80;99.90;;;;;;5060743;28;20572;-49
2022/12/04 11:44:56;;;;;;;11.07;10.07;;;4.80;99.90;;;;;;5058979;28;20827;-49
2022/12/04 11:47:25;;;;;;;11.60;9.83;;;4.80;99.90;;;;;;5066071;28;20437;-48
2022/12/04 11:50:02;;;;;;;10.20;8.90;;;4.90;99.90;;;;;;5068789;28;20509;-47
2022/12/04 11:52:41;;;;;;;9.90;9.00;;;4.90;99.90;;;;;;5065231;28;21029;-48
2022/12/04 11:55:15;;;;;;;11.43;9.60;;;4.90;99.90;;;;;;5062836;28;20681;-46
2022/12/04 11:57:49;;;;;;;13.07;11.03;;;5.00;99.90;;;;;;5063926;28;20454;-48
2022/12/04 12:00:19;;;;;;;16.03;12.47;;;5.10;99.90;;;;;;5067430;28;20982;-47
2022/12/04 12:03:08;;;;;;;14.50;11.40;;;5.20;99.90;;;;;;5070747;28;20468;-49
2022/12/04 12:06:07;;;;;;;11.10;10.00;;;5.10;99.90;;;;;;5068546;28;20476;-50
2022/12/04 12:08:53;;;;;;;12.83;11.50;;;5.10;99.90;;;;;;5071100;28;20520;-48
2022/12/04 12:11:25;;;;;;;13.93;12.40;;;5.10;99.90;;;;;;5071290;28;20510;-49
2022/12/04 12:14:02;;;;;;;15.57;12.50;;;5.20;99.90;;;;;;5063095;28;20462;-49
2022/12/04 12:16:41;;;;;;;13.90;12.40;;;5.30;99.90;;;;;;5071320;28;20473;-46
2022/12/04 12:19:36;;;;;;;13.53;12.03;;;5.30;99.90;;;;;;5071156;28;20442;-47
2022/12/04 12:22:11;;;;;;;15.03;13.43;;;5.20;99.90;;;;;;5065031;28;20469;-47
2022/12/04 12:24:46;;;;;;;14.90;13.40;;;5.30;99.90;;;;;;5056088;28;20987;-47
2022/12/04 12:27:30;;;;;;;18.43;13.70;;;5.30;99.90;;;;;;5051873;28;20860;-47
2022/12/04 12:30:03;;;;;;;12.77;11.57;;;5.20;99.90;;;;;;5059373;28;20484;-47
2022/12/04 12:32:52;;;;;;;11.60;10.40;;;5.30;99.90;;;;;;5071401;28;20497;-47
2022/12/04 12:35:24;;;;;;;10.90;9.27;;;5.30;99.90;;;;;;5070449;28;21039;-48
2022/12/04 12:37:54;;;;;;;11.37;9.57;;;5.30;99.90;;;;;;5070435;28;20450;-47
2022/12/04 12:40:30;;;;;;;10.67;9.57;;;5.30;99.90;;;;;;5070295;28;20945;-47
2022/12/04 12:43:01;;;;;;;13.00;10.23;;;5.30;99.90;;;;;;5070613;28;20452;-47
2022/12/04 12:45:36;;;;;;;11.87;10.67;;;5.30;99.90;;;;;;5062823;28;20443;-47
2022/12/04 12:48:15;;;;;;;12.20;11.07;;;5.40;99.90;;;;;;5071475;28;20944;-46
2022/12/04 12:50:47;;;;;;;14.07;10.47;;;5.50;99.90;;;;;;5071776;28;20442;-46
2022/12/04 12:53:20;;;;;;;10.73;9.63;;;5.50;99.90;;;;;;5071023;28;20506;-47
2022/12/04 12:55:50;;;;;;;11.50;8.23;;;5.70;99.90;;;;;;5069306;28;20445;-46
2022/12/04 12:58:24;;;;;;;10.83;8.77;;;5.90;99.90;;;;;;5071186;28;20448;-47
2022/12/04 13:01:00;;;;;;;10.10;9.10;;;5.80;99.90;;;;;;5071027;28;20498;-47
2022/12/04 13:03:32;;;;;;;11.77;9.20;;;5.80;99.90;;;;;;5070604;28;20558;-49
2022/12/04 13:06:03;;;;;;;11.77;10.57;;;5.70;99.90;;;;;;5071032;28;20542;-47